sensor_id;sensor_type;location;lat;lon;timestamp;pressure;altitude;pressure_sealevel;temperature;humidity
71239;BME280;61342;51.442;7.370;2023-02-04T00:00:53;101516.09;;;8.51;87.68
71239;BME280;61342;51.442;7.370;2023-02-04T00:01:54;101510.84;;;8.50;87.67
71239;BME280;61342;51.442;7.370;2023-02-04T00:02:54;101517.88;;;8.49;87.83
71239;BME280;61342;51.442;7.370;2023-02-04T00:03:54;101517.56;;;8.47;87.84
71239;BME280;61342;51.442;7.370;2023-02-04T00:04:55;101514.69;;;8.47;87.71
71239;BME280;61342;51.442;7.370;2023-02-04T00:05:55;101520.09;;;8.45;88.25
71239;BME280;61342;51.442;7.370;2023-02-04T00:06:55;101521.19;;;8.47;87.80
71239;BME280;61342;51.442;7.370;2023-02-04T00:07:56;101529.81;;;8.47;88.10
71239;BME280;61342;51.442;7.370;2023-02-04T00:08:56;101525.38;;;8.46;88.04
71239;BME280;61342;51.442;7.370;2023-02-04T00:09:57;101517.72;;;8.43;88.16
71239;BME280;61342;51.442;7.370;2023-02-04T00:10:57;101526.66;;;8.45;87.81
71239;BME280;61342;51.442;7.370;2023-02-04T00:11:58;101521.88;;;8.42;88.13
71239;BME280;61342;51.442;7.370;2023-02-04T00:12:58;101530.47;;;8.42;88.17
71239;BME280;61342;51.442;7.370;2023-02-04T00:13:58;101531.25;;;8.43;88.28
71239;BME280;61342;51.442;7.370;2023-02-04T00:14:59;101539.06;;;8.42;87.96
71239;BME280;61342;51.442;7.370;2023-02-04T00:16:00;101544.81;;;8.42;87.95
71239;BME280;61342;51.442;7.370;2023-02-04T00:17:00;101555.94;;;8.40;88.04
71239;BME280;61342;51.442;7.370;2023-02-04T00:18:00;101541.31;;;8.38;88.21
71239;BME280;61342;51.442;7.370;2023-02-04T00:19:01;101546.06;;;8.41;88.41
71239;BME280;61342;51.442;7.370;2023-02-04T00:20:01;101547.84;;;8.39;88.58
71239;BME280;61342;51.442;7.370;2023-02-04T00:21:01;101542.88;;;8.39;88.42
71239;BME280;61342;51.442;7.370;2023-02-04T00:22:02;101542.88;;;8.39;88.48
71239;BME280;61342;51.442;7.370;2023-02-04T00:23:03;101542.88;;;8.39;88.40
71239;BME280;61342;51.442;7.370;2023-02-04T00:24:03;101552.78;;;8.38;88.77
71239;BME280;61342;51.442;7.370;2023-02-04T00:25:04;101556.44;;;8.39;88.70
71239;BME280;61342;51.442;7.370;2023-02-04T00:26:04;101546.25;;;8.38;88.53
71239;BME280;61342;51.442;7.370;2023-02-04T00:27:05;101542.28;;;8.35;88.73
71239;BME280;61342;51.442;7.370;2023-02-04T00:28:06;101551.97;;;8.38;88.94
71239;BME280;61342;51.442;7.370;2023-02-04T00:29:06;101539.13;;;8.33;88.47
71239;BME280;61342;51.442;7.370;2023-02-04T00:30:09;101563.44;;;8.38;88.63
71239;BME280;61342;51.442;7.370;2023-02-04T00:31:09;101556.91;;;8.37;88.84
71239;BME280;61342;51.442;7.370;2023-02-04T00:32:10;101563.13;;;8.36;88.78
71239;BME280;61342;51.442;7.370;2023-02-04T00:33:10;101556.91;;;8.37;88.73
71239;BME280;61342;51.442;7.370;2023-02-04T00:34:10;101565.19;;;8.35;88.76
71239;BME280;61342;51.442;7.370;2023-02-04T00:35:11;101562.03;;;8.33;88.64
71239;BME280;61342;51.442;7.370;2023-02-04T00:36:11;101572.50;;;8.36;88.68
71239;BME280;61342;51.442;7.370;2023-02-04T00:37:12;101569.34;;;8.34;89.04
71239;BME280;61342;51.442;7.370;2023-02-04T00:38:12;101572.50;;;8.36;89.10
71239;BME280;61342;51.442;7.370;2023-02-04T00:39:13;101561.53;;;8.35;88.62
71239;BME280;61342;51.442;7.370;2023-02-04T00:40:13;101569.34;;;8.34;88.79
71239;BME280;61342;51.442;7.370;2023-02-04T00:41:13;101570.13;;;8.35;88.82
71239;BME280;61342;51.442;7.370;2023-02-04T00:42:14;101568.06;;;8.35;88.92
71239;BME280;61342;51.442;7.370;2023-02-04T00:43:15;101577.94;;;8.34;88.88
71239;BME280;61342;51.442;7.370;2023-02-04T00:44:15;101573.47;;;8.33;89.04
71239;BME280;61342;51.442;7.370;2023-02-04T00:45:15;101580.81;;;8.34;89.00
71239;BME280;61342;51.442;7.370;2023-02-04T00:46:16;101575.09;;;8.34;89.09
71239;BME280;61342;51.442;7.370;2023-02-04T00:47:16;101571.88;;;8.32;88.97
71239;BME280;61342;51.442;7.370;2023-02-04T00:48:16;101569.81;;;8.33;89.19
71239;BME280;61342;51.442;7.370;2023-02-04T00:49:17;101570.63;;;8.33;89.14
71239;BME280;61342;51.442;7.370;2023-02-04T00:50:17;101579.22;;;8.33;89.01
71239;BME280;61342;51.442;7.370;2023-02-04T00:51:17;101576.34;;;8.33;89.24
71239;BME280;61342;51.442;7.370;2023-02-04T00:52:18;101570.28;;;8.31;89.14
71239;BME280;61342;51.442;7.370;2023-02-04T00:53:18;101571.88;;;8.32;88.96
71239;BME280;61342;51.442;7.370;2023-02-04T00:54:19;101567.75;;;8.33;89.26
71239;BME280;61342;51.442;7.370;2023-02-04T00:55:19;101571.09;;;8.32;89.02
71239;BME280;61342;51.442;7.370;2023-02-04T00:56:19;101566.31;;;8.29;89.30
71239;BME280;61342;51.442;7.370;2023-02-04T00:57:20;101566.94;;;8.33;89.34
71239;BME280;61342;51.442;7.370;2023-02-04T00:58:20;101571.88;;;8.32;89.18
71239;BME280;61342;51.442;7.370;2023-02-04T00:59:20;101573.47;;;8.33;89.32
71239;BME280;61342;51.442;7.370;2023-02-04T01:00:21;101573.47;;;8.33;89.24
71239;BME280;61342;51.442;7.370;2023-02-04T01:01:21;101573.47;;;8.33;89.15
71239;BME280;61342;51.442;7.370;2023-02-04T01:02:21;101573.47;;;8.33;89.42
71239;BME280;61342;51.442;7.370;2023-02-04T01:03:22;101576.03;;;8.31;89.37
71239;BME280;61342;51.442;7.370;2023-02-04T01:04:22;101579.22;;;8.33;89.40
71239;BME280;61342;51.442;7.370;2023-02-04T01:05:23;101577.63;;;8.32;89.32
71239;BME280;61342;51.442;7.370;2023-02-04T01:06:23;101582.56;;;8.32;89.18
71239;BME280;61342;51.442;7.370;2023-02-04T01:07:23;101579.22;;;8.33;89.48
71239;BME280;61342;51.442;7.370;2023-02-04T01:08:24;101578.88;;;8.31;89.28
71239;BME280;61342;51.442;7.370;2023-02-04T01:09:24;101576.03;;;8.31;89.52
71239;BME280;61342;51.442;7.370;2023-02-04T01:10:24;101583.34;;;8.32;89.23
71239;BME280;61342;51.442;7.370;2023-02-04T01:11:26;101580.81;;;8.34;89.53
71239;BME280;61342;51.442;7.370;2023-02-04T01:12:27;101589.41;;;8.34;89.67
71239;BME280;61342;51.442;7.370;2023-02-04T01:13:27;101584.94;;;8.33;89.20
71239;BME280;61342;51.442;7.370;2023-02-04T01:14:28;101587.00;;;8.33;89.48
71239;BME280;61342;51.442;7.370;2023-02-04T01:15:28;101582.06;;;8.33;89.40
71239;BME280;61342;51.442;7.370;2023-02-04T01:16:28;101576.84;;;8.32;89.39
71239;BME280;61342;51.442;7.370;2023-02-04T01:17:29;101590.34;;;8.31;89.46
71239;BME280;61342;51.442;7.370;2023-02-04T01:18:29;101587.97;;;8.30;89.50
71239;BME280;61342;51.442;7.370;2023-02-04T01:19:29;101589.06;;;8.32;89.35
71239;BME280;61342;51.442;7.370;2023-02-04T01:20:30;101592.91;;;8.29;89.67
71239;BME280;61342;51.442;7.370;2023-02-04T01:21:30;101597.66;;;8.32;89.34
71239;BME280;61342;51.442;7.370;2023-02-04T01:22:33;101607.03;;;8.33;89.38
71239;BME280;61342;51.442;7.370;2023-02-04T01:23:33;101600.53;;;8.32;89.34
71239;BME280;61342;51.442;7.370;2023-02-04T01:24:34;101598.16;;;8.31;89.23
71239;BME280;61342;51.442;7.370;2023-02-04T01:25:34;101603.09;;;8.30;89.37
71239;BME280;61342;51.442;7.370;2023-02-04T01:26:34;101608.03;;;8.30;89.49
71239;BME280;61342;51.442;7.370;2023-02-04T01:27:35;101602.63;;;8.32;89.36
71239;BME280;61342;51.442;7.370;2023-02-04T01:28:35;101608.84;;;8.30;89.33
71239;BME280;61342;51.442;7.370;2023-02-04T01:29:36;101608.03;;;8.30;89.75
71239;BME280;61342;51.442;7.370;2023-02-04T01:30:36;101614.06;;;8.32;89.30
71239;BME280;61342;51.442;7.370;2023-02-04T01:31:36;101601.50;;;8.29;89.57
71239;BME280;61342;51.442;7.370;2023-02-04T01:32:37;101605.47;;;8.32;89.66
71239;BME280;61342;51.442;7.370;2023-02-04T01:33:37;101608.84;;;8.30;89.69
71239;BME280;61342;51.442;7.370;2023-02-04T01:34:37;101616.13;;;8.31;89.67
71239;BME280;61342;51.442;7.370;2023-02-04T01:35:38;101616.13;;;8.31;89.83
71239;BME280;61342;51.442;7.370;2023-02-04T01:36:38;101618.22;;;8.31;89.49
71239;BME280;61342;51.442;7.370;2023-02-04T01:37:38;101629.66;;;8.31;89.68
71239;BME280;61342;51.442;7.370;2023-02-04T01:38:39;101622.81;;;8.28;89.74
71239;BME280;61342;51.442;7.370;2023-02-04T01:39:39;101617.44;;;8.30;89.89
71239;BME280;61342;51.442;7.370;2023-02-04T01:40:40;101624.72;;;8.31;89.88
71239;BME280;61342;51.442;7.370;2023-02-04T01:41:41;101633.31;;;8.31;89.63
71239;BME280;61342;51.442;7.370;2023-02-04T01:42:41;101611.38;;;8.28;89.58
71239;BME280;61342;51.442;7.370;2023-02-04T01:43:42;101619.97;;;8.28;89.37
71239;BME280;61342;51.442;7.370;2023-02-04T01:44:46;101626.97;;;8.27;89.86
71239;BME280;61342;51.442;7.370;2023-02-04T01:45:48;101621.06;;;8.31;89.56
71239;BME280;61342;51.442;7.370;2023-02-04T01:46:49;101626.03;;;8.30;89.46
71239;BME280;61342;51.442;7.370;2023-02-04T01:47:50;101628.06;;;8.30;89.63
71239;BME280;61342;51.442;7.370;2023-02-04T01:48:50;101623.94;;;8.31;89.71
71239;BME280;61342;51.442;7.370;2023-02-04T01:49:52;101625.19;;;8.30;89.84
71239;BME280;61342;51.442;7.370;2023-02-04T01:51:09;101626.19;;;8.27;89.65
71239;BME280;61342;51.442;7.370;2023-02-04T01:52:10;101625.38;;;8.26;89.75
71239;BME280;61342;51.442;7.370;2023-02-04T01:53:11;101625.38;;;8.26;89.78
71239;BME280;61342;51.442;7.370;2023-02-04T01:54:13;101626.19;;;8.27;89.63
71239;BME280;61342;51.442;7.370;2023-02-04T01:55:16;101628.88;;;8.30;89.68
71239;BME280;61342;51.442;7.370;2023-02-04T01:56:22;101630.94;;;8.30;89.94
71239;BME280;61342;51.442;7.370;2023-02-04T01:57:25;101617.09;;;8.28;89.72
71239;BME280;61342;51.442;7.370;2023-02-04T01:58:25;101618.69;;;8.29;89.82
71239;BME280;61342;51.442;7.370;2023-02-04T01:59:26;101617.88;;;8.29;90.00
71239;BME280;61342;51.442;7.370;2023-02-04T02:00:29;101623.16;;;8.30;89.87
71239;BME280;61342;51.442;7.370;2023-02-04T02:02:41;101627.28;;;8.29;90.02
71239;BME280;61342;51.442;7.370;2023-02-04T02:03:42;101636.66;;;8.30;90.04
71239;BME280;61342;51.442;7.370;2023-02-04T02:04:42;101640.34;;;8.30;89.97
71239;BME280;61342;51.442;7.370;2023-02-04T02:05:45;101647.63;;;8.31;89.82
71239;BME280;61342;51.442;7.370;2023-02-04T02:06:58;101652.25;;;8.29;89.80
71239;BME280;61342;51.442;7.370;2023-02-04T02:08:02;101641.59;;;8.29;89.80
71239;BME280;61342;51.442;7.370;2023-02-04T02:09:04;101655.44;;;8.31;89.87
71239;BME280;61342;51.442;7.370;2023-02-04T02:10:06;101639.06;;;8.22;90.05
71239;BME280;61342;51.442;7.370;2023-02-04T02:11:07;101650.97;;;8.30;90.07
71239;BME280;61342;51.442;7.370;2023-02-04T02:12:08;101651.78;;;8.30;89.95
71239;BME280;61342;51.442;7.370;2023-02-04T02:13:11;101647.34;;;8.29;90.12
71239;BME280;61342;51.442;7.370;2023-02-04T02:14:12;101642.38;;;8.30;89.91
71239;BME280;61342;51.442;7.370;2023-02-04T02:15:14;101648.13;;;8.30;89.90
71239;BME280;61342;51.442;7.370;2023-02-04T02:16:14;101651.78;;;8.30;90.05
71239;BME280;61342;51.442;7.370;2023-02-04T02:17:14;101643.22;;;8.30;90.16
71239;BME280;61342;51.442;7.370;2023-02-04T02:18:15;101639.72;;;8.26;90.07
71239;BME280;61342;51.442;7.370;2023-02-04T02:19:21;101644.97;;;8.28;90.15
71239;BME280;61342;51.442;7.370;2023-02-04T02:20:26;101640.34;;;8.30;90.20
71239;BME280;61342;51.442;7.370;2023-02-04T02:21:35;101643.66;;;8.29;90.18
71239;BME280;61342;51.442;7.370;2023-02-04T02:22:54;101644.16;;;8.27;89.98
71239;BME280;61342;51.442;7.370;2023-02-04T02:23:57;101643.34;;;8.27;90.13
71239;BME280;61342;51.442;7.370;2023-02-04T02:24:57;101642.88;;;8.28;90.05
71239;BME280;61342;51.442;7.370;2023-02-04T02:25:57;101654.66;;;8.30;90.09
71239;BME280;61342;51.442;7.370;2023-02-04T02:27:04;101652.44;;;8.25;90.12
71239;BME280;61342;51.442;7.370;2023-02-04T02:28:11;101653.06;;;8.29;90.26
71239;BME280;61342;51.442;7.370;2023-02-04T02:29:12;101651.94;;;8.27;90.23
71239;BME280;61342;51.442;7.370;2023-02-04T02:30:13;101658.78;;;8.29;90.18
71239;BME280;61342;51.442;7.370;2023-02-04T02:31:19;101657.97;;;8.29;90.24
71239;BME280;61342;51.442;7.370;2023-02-04T02:32:19;101660.53;;;8.27;90.09
71239;BME280;61342;51.442;7.370;2023-02-04T02:33:20;101661.34;;;8.27;90.46
71239;BME280;61342;51.442;7.370;2023-02-04T02:34:20;101652.25;;;8.29;90.48
71239;BME280;61342;51.442;7.370;2023-02-04T02:35:21;101661.66;;;8.29;90.13
71239;BME280;61342;51.442;7.370;2023-02-04T02:36:21;101654.03;;;8.26;90.37
71239;BME280;61342;51.442;7.370;2023-02-04T02:37:23;101647.00;;;8.27;90.54
71239;BME280;61342;51.442;7.370;2023-02-04T02:38:24;101655.94;;;8.29;90.44
71239;BME280;61342;51.442;7.370;2023-02-04T02:39:25;101654.66;;;8.30;90.56
71239;BME280;61342;51.442;7.370;2023-02-04T02:40:25;101661.66;;;8.29;90.53
71239;BME280;61342;51.442;7.370;2023-02-04T02:41:26;101652.25;;;8.29;90.53
71239;BME280;61342;51.442;7.370;2023-02-04T02:42:27;101655.59;;;8.27;90.49
71239;BME280;61342;51.442;7.370;2023-02-04T02:43:28;101664.53;;;8.29;90.41
71239;BME280;61342;51.442;7.370;2023-02-04T02:44:29;101657.19;;;8.28;90.57
71239;BME280;61342;51.442;7.370;2023-02-04T02:45:31;101646.72;;;8.25;90.64
71239;BME280;61342;51.442;7.370;2023-02-04T02:46:32;101651.47;;;8.28;90.64
71239;BME280;61342;51.442;7.370;2023-02-04T02:47:33;101658.78;;;8.29;90.53
71239;BME280;61342;51.442;7.370;2023-02-04T02:48:33;101651.47;;;8.28;90.65
71239;BME280;61342;51.442;7.370;2023-02-04T02:49:33;101654.34;;;8.28;90.66
71239;BME280;61342;51.442;7.370;2023-02-04T02:50:36;101653.06;;;8.29;90.63
71239;BME280;61342;51.442;7.370;2023-02-04T02:51:37;101655.59;;;8.27;90.58
71239;BME280;61342;51.442;7.370;2023-02-04T02:52:37;101650.34;;;8.26;90.66
71239;BME280;61342;51.442;7.370;2023-02-04T02:53:37;101654.03;;;8.26;90.67
71239;BME280;61342;51.442;7.370;2023-02-04T02:54:39;101658.16;;;8.25;90.65
71239;BME280;61342;51.442;7.370;2023-02-04T02:55:40;101646.72;;;8.16;90.83
71239;BME280;61342;51.442;7.370;2023-02-04T02:56:40;101662.94;;;8.28;90.80
71239;BME280;61342;51.442;7.370;2023-02-04T02:57:41;101662.94;;;8.28;90.78
71239;BME280;61342;51.442;7.370;2023-02-04T02:58:41;101665.50;;;8.26;91.03
71239;BME280;61342;51.442;7.370;2023-02-04T02:59:42;101667.06;;;8.27;90.73
71239;BME280;61342;51.442;7.370;2023-02-04T03:00:43;101661.03;;;8.25;90.68
71239;BME280;61342;51.442;7.370;2023-02-04T03:01:45;101672.78;;;8.27;90.79
71239;BME280;61342;51.442;7.370;2023-02-04T03:02:54;101665.16;;;8.24;90.93
71239;BME280;61342;51.442;7.370;2023-02-04T03:03:56;101670.41;;;8.26;91.06
71239;BME280;61342;51.442;7.370;2023-02-04T03:04:57;101673.28;;;8.26;90.83
71239;BME280;61342;51.442;7.370;2023-02-04T03:06:05;101670.88;;;8.24;91.06
71239;BME280;61342;51.442;7.370;2023-02-04T03:07:07;101669.63;;;8.25;91.14
71239;BME280;61342;51.442;7.370;2023-02-04T03:08:09;101670.88;;;8.24;90.93
71239;BME280;61342;51.442;7.370;2023-02-04T03:09:11;101668.03;;;8.24;90.95
71239;BME280;61342;51.442;7.370;2023-02-04T03:10:11;101668.50;;;8.23;90.84
71239;BME280;61342;51.442;7.370;2023-02-04T03:11:12;101672.97;;;8.24;91.08
71239;BME280;61342;51.442;7.370;2023-02-04T03:12:12;101664.38;;;8.24;91.01
71239;BME280;61342;51.442;7.370;2023-02-04T03:13:13;101667.25;;;8.24;90.78
71239;BME280;61342;51.442;7.370;2023-02-04T03:14:15;101672.16;;;8.23;91.00
71239;BME280;61342;51.442;7.370;2023-02-04T03:15:16;101678.69;;;8.24;91.12
71239;BME280;61342;51.442;7.370;2023-02-04T03:16:17;101663.91;;;8.16;90.97
71239;BME280;61342;51.442;7.370;2023-02-04T03:17:17;101672.16;;;8.23;90.95
71239;BME280;61342;51.442;7.370;2023-02-04T03:18:19;101650.56;;;8.13;91.12
71239;BME280;61342;51.442;7.370;2023-02-04T03:19:20;101662.94;;;8.19;91.02
71239;BME280;61342;51.442;7.370;2023-02-04T03:20:24;101649.25;;;8.14;91.19
71239;BME280;61342;51.442;7.370;2023-02-04T03:21:26;101670.56;;;8.22;91.33
71239;BME280;61342;51.442;7.370;2023-02-04T03:22:29;101661.81;;;8.17;91.03
71239;BME280;61342;51.442;7.370;2023-02-04T03:23:31;101670.25;;;8.20;91.17
71239;BME280;61342;51.442;7.370;2023-02-04T03:24:32;101673.13;;;8.20;91.28
71239;BME280;61342;51.442;7.370;2023-02-04T03:25:33;101669.78;;;8.22;91.13
71239;BME280;61342;51.442;7.370;2023-02-04T03:26:34;101671.84;;;8.21;91.41
71239;BME280;61342;51.442;7.370;2023-02-04T03:27:34;101671.53;;;8.19;91.22
71239;BME280;61342;51.442;7.370;2023-02-04T03:28:38;101669.16;;;8.18;91.40
71239;BME280;61342;51.442;7.370;2023-02-04T03:29:43;101670.25;;;8.20;91.24
71239;BME280;61342;51.442;7.370;2023-02-04T03:30:44;101676.00;;;8.20;91.51
71239;BME280;61342;51.442;7.370;2023-02-04T03:31:53;101669.78;;;8.13;91.46
71239;BME280;61342;51.442;7.370;2023-02-04T03:32:54;101681.72;;;8.20;91.35
71239;BME280;61342;51.442;7.370;2023-02-04T03:33:54;101677.25;;;8.19;91.63
71239;BME280;61342;51.442;7.370;2023-02-04T03:34:55;101675.84;;;8.15;91.51
71239;BME280;61342;51.442;7.370;2023-02-04T03:35:56;101687.44;;;8.20;91.35
71239;BME280;61342;51.442;7.370;2023-02-04T03:36:57;101678.84;;;8.20;91.51
71239;BME280;61342;51.442;7.370;2023-02-04T03:37:57;101677.25;;;8.19;91.39
71239;BME280;61342;51.442;7.370;2023-02-04T03:38:57;101690.78;;;8.19;91.67
71239;BME280;61342;51.442;7.370;2023-02-04T03:39:58;101682.97;;;8.19;91.52
71239;BME280;61342;51.442;7.370;2023-02-04T03:40:58;101681.38;;;8.18;91.63
71239;BME280;61342;51.442;7.370;2023-02-04T03:41:59;101687.94;;;8.19;91.73
71239;BME280;61342;51.442;7.370;2023-02-04T03:42:59;101693.66;;;8.19;91.61
71239;BME280;61342;51.442;7.370;2023-02-04T03:43:59;101688.91;;;8.16;91.71
71239;BME280;61342;51.442;7.370;2023-02-04T03:45:00;101688.41;;;8.17;91.69
71239;BME280;61342;51.442;7.370;2023-02-04T03:46:00;101686.66;;;8.20;91.46
71239;BME280;61342;51.442;7.370;2023-02-04T03:47:01;101697.78;;;8.18;91.75
71239;BME280;61342;51.442;7.370;2023-02-04T03:48:01;101692.84;;;8.18;91.84
71239;BME280;61342;51.442;7.370;2023-02-04T03:49:01;101694.13;;;8.17;91.94
71239;BME280;61342;51.442;7.370;2023-02-04T03:50:02;101686.03;;;8.16;91.82
71239;BME280;61342;51.442;7.370;2023-02-04T03:51:03;101678.22;;;8.16;91.94
71239;BME280;61342;51.442;7.370;2023-02-04T03:52:03;101695.69;;;8.18;91.80
71239;BME280;61342;51.442;7.370;2023-02-04T03:53:04;101689.97;;;8.18;91.80
71239;BME280;61342;51.442;7.370;2023-02-04T03:54:04;101686.47;;;8.14;91.88
71239;BME280;61342;51.442;7.370;2023-02-04T03:55:05;101698.56;;;8.18;92.07
71239;BME280;61342;51.442;7.370;2023-02-04T03:56:08;101695.88;;;8.15;91.84
71239;BME280;61342;51.442;7.370;2023-02-04T03:57:09;101696.19;;;8.17;92.06
71239;BME280;61342;51.442;7.370;2023-02-04T03:58:09;101698.56;;;8.18;92.16
71239;BME280;61342;51.442;7.370;2023-02-04T03:59:10;101705.59;;;8.17;92.13
71239;BME280;61342;51.442;7.370;2023-02-04T04:00:11;101700.66;;;8.18;92.21
71239;BME280;61342;51.442;7.370;2023-02-04T04:01:11;101704.78;;;8.17;91.93
71239;BME280;61342;51.442;7.370;2023-02-04T04:02:12;101709.25;;;8.18;91.92
71239;BME280;61342;51.442;7.370;2023-02-04T04:03:12;101704.00;;;8.16;92.11
71239;BME280;61342;51.442;7.370;2023-02-04T04:04:12;101704.78;;;8.17;92.22
71239;BME280;61342;51.442;7.370;2023-02-04T04:05:13;101700.34;;;8.16;92.07
71239;BME280;61342;51.442;7.370;2023-02-04T04:06:13;101703.34;;;8.12;92.03
71239;BME280;61342;51.442;7.370;2023-02-04T04:07:14;101718.31;;;8.16;92.14
71239;BME280;61342;51.442;7.370;2023-02-04T04:08:14;101710.03;;;8.18;92.32
71239;BME280;61342;51.442;7.370;2023-02-04T04:09:15;101721.47;;;8.18;92.38
71239;BME280;61342;51.442;7.370;2023-02-04T04:10:15;101713.38;;;8.17;92.16
71239;BME280;61342;51.442;7.370;2023-02-04T04:11:15;101709.72;;;8.16;92.30
71239;BME280;61342;51.442;7.370;2023-02-04T04:12:16;101708.47;;;8.17;92.31
71239;BME280;61342;51.442;7.370;2023-02-04T04:13:16;101717.53;;;8.16;92.56
71239;BME280;61342;51.442;7.370;2023-02-04T04:14:16;101708.94;;;8.16;92.34
71239;BME280;61342;51.442;7.370;2023-02-04T04:15:17;101713.06;;;8.15;92.31
71239;BME280;61342;51.442;7.370;2023-02-04T04:16:17;101719.91;;;8.17;92.40
71239;BME280;61342;51.442;7.370;2023-02-04T04:17:19;101718.47;;;8.13;92.24
71239;BME280;61342;51.442;7.370;2023-02-04T04:18:20;101729.00;;;8.16;92.26
71239;BME280;61342;51.442;7.370;2023-02-04T04:19:20;101729.00;;;8.16;92.43
71239;BME280;61342;51.442;7.370;2023-02-04T04:20:20;101728.50;;;8.17;92.41
71239;BME280;61342;51.442;7.370;2023-02-04T04:21:24;101725.31;;;8.15;92.68
71239;BME280;61342;51.442;7.370;2023-02-04T04:22:24;101724.03;;;8.16;92.66
71239;BME280;61342;51.442;7.370;2023-02-04T04:23:25;101728.16;;;8.15;92.22
71239;BME280;61342;51.442;7.370;2023-02-04T04:24:26;101729.78;;;8.16;92.47
71239;BME280;61342;51.442;7.370;2023-02-04T04:25:26;101735.50;;;8.16;92.09
71239;BME280;61342;51.442;7.370;2023-02-04T04:26:27;101716.06;;;8.11;92.32
71239;BME280;61342;51.442;7.370;2023-02-04T04:27:27;101724.03;;;8.16;92.41
71239;BME280;61342;51.442;7.370;2023-02-04T04:28:29;101737.25;;;8.14;92.58
71239;BME280;61342;51.442;7.370;2023-02-04T04:29:29;101723.38;;;8.12;92.60
71239;BME280;61342;51.442;7.370;2023-02-04T04:30:29;101731.53;;;8.14;92.51
71239;BME280;61342;51.442;7.370;2023-02-04T04:31:30;101739.63;;;8.15;92.63
71239;BME280;61342;51.442;7.370;2023-02-04T04:32:30;101733.13;;;8.15;92.57
71239;BME280;61342;51.442;7.370;2023-02-04T04:33:31;101738.84;;;8.15;92.51
71239;BME280;61342;51.442;7.370;2023-02-04T04:34:31;101744.09;;;8.16;92.60
71239;BME280;61342;51.442;7.370;2023-02-04T04:35:32;101749.47;;;8.14;92.57
71239;BME280;61342;51.442;7.370;2023-02-04T04:36:33;101755.22;;;8.14;92.54
71239;BME280;61342;51.442;7.370;2023-02-04T04:37:34;101764.13;;;8.16;92.64
71239;BME280;61342;51.442;7.370;2023-02-04T04:38:34;101757.63;;;8.16;92.62
71239;BME280;61342;51.442;7.370;2023-02-04T04:39:34;101747.56;;;8.11;92.70
71239;BME280;61342;51.442;7.370;2023-02-04T04:40:35;101752.34;;;8.14;92.55
71239;BME280;61342;51.442;7.370;2023-02-04T04:41:35;101754.44;;;8.14;92.55
71239;BME280;61342;51.442;7.370;2023-02-04T04:42:35;101753.16;;;8.15;92.50
71239;BME280;61342;51.442;7.370;2023-02-04T04:43:37;101756.81;;;8.15;92.74
71239;BME280;61342;51.442;7.370;2023-02-04T04:44:37;101754.44;;;8.14;92.53
71239;BME280;61342;51.442;7.370;2023-02-04T04:45:38;101749.97;;;8.13;92.67
71239;BME280;61342;51.442;7.370;2023-02-04T04:46:38;101742.19;;;8.13;92.60
71239;BME280;61342;51.442;7.370;2023-02-04T04:47:39;101756.03;;;8.15;92.67
71239;BME280;61342;51.442;7.370;2023-02-04T04:48:40;101743.91;;;8.11;92.69
71239;BME280;61342;51.442;7.370;2023-02-04T04:49:40;101753.66;;;8.13;92.88
71239;BME280;61342;51.442;7.370;2023-02-04T04:50:40;101751.09;;;8.15;92.94
71239;BME280;61342;51.442;7.370;2023-02-04T04:51:41;101740.56;;;8.12;92.88
71239;BME280;61342;51.442;7.370;2023-02-04T04:52:41;101756.81;;;8.15;92.64
71239;BME280;61342;51.442;7.370;2023-02-04T04:53:41;101750.28;;;8.15;92.82
71239;BME280;61342;51.442;7.370;2023-02-04T04:54:42;101750.78;;;8.13;92.70
71239;BME280;61342;51.442;7.370;2023-02-04T04:55:42;101733.59;;;8.13;92.78
71239;BME280;61342;51.442;7.370;2023-02-04T04:56:42;101743.41;;;8.12;92.85
71239;BME280;61342;51.442;7.370;2023-02-04T04:57:43;101741.38;;;8.13;92.73
71239;BME280;61342;51.442;7.370;2023-02-04T04:58:43;101753.16;;;8.15;92.90
71239;BME280;61342;51.442;7.370;2023-02-04T04:59:44;101756.50;;;8.13;92.82
71239;BME280;61342;51.442;7.370;2023-02-04T05:00:47;101755.69;;;8.13;92.97
71239;BME280;61342;51.442;7.370;2023-02-04T05:01:47;101752.34;;;8.14;92.93
71239;BME280;61342;51.442;7.370;2023-02-04T05:02:48;101760.94;;;8.14;92.82
71239;BME280;61342;51.442;7.370;2023-02-04T05:03:48;101758.88;;;8.15;92.89
71239;BME280;61342;51.442;7.370;2023-02-04T05:04:48;101763.81;;;8.14;92.89
71239;BME280;61342;51.442;7.370;2023-02-04T05:05:49;101771.13;;;8.15;92.86
71239;BME280;61342;51.442;7.370;2023-02-04T05:06:50;101767.47;;;8.15;92.77
71239;BME280;61342;51.442;7.370;2023-02-04T05:07:50;101761.41;;;8.13;93.02
71239;BME280;61342;51.442;7.370;2023-02-04T05:08:52;101766.66;;;8.14;92.77
71239;BME280;61342;51.442;7.370;2023-02-04T05:09:53;101774.00;;;8.15;93.05
71239;BME280;61342;51.442;7.370;2023-02-04T05:10:53;101772.41;;;8.14;93.00
71239;BME280;61342;51.442;7.370;2023-02-04T05:11:53;101771.94;;;8.16;93.12
71239;BME280;61342;51.442;7.370;2023-02-04T05:12:54;101766.66;;;8.14;93.05
71239;BME280;61342;51.442;7.370;2023-02-04T05:13:54;101767.47;;;8.15;92.97
71239;BME280;61342;51.442;7.370;2023-02-04T05:14:55;101769.19;;;8.12;92.95
71239;BME280;61342;51.442;7.370;2023-02-04T05:15:55;101770.00;;;8.13;93.21
71239;BME280;61342;51.442;7.370;2023-02-04T05:16:55;101771.28;;;8.12;93.09
71239;BME280;61342;51.442;7.370;2023-02-04T05:17:56;101776.06;;;8.15;93.26
71239;BME280;61342;51.442;7.370;2023-02-04T05:18:57;101769.53;;;8.14;93.38
71239;BME280;61342;51.442;7.370;2023-02-04T05:19:57;101772.06;;;8.12;93.32
71239;BME280;61342;51.442;7.370;2023-02-04T05:20:58;101774.13;;;8.12;93.11
71239;BME280;61342;51.442;7.370;2023-02-04T05:21:58;101768.41;;;8.12;93.18
71239;BME280;61342;51.442;7.370;2023-02-04T05:23:00;101774.91;;;8.12;93.13
71239;BME280;61342;51.442;7.370;2023-02-04T05:24:01;101773.31;;;8.11;93.33
71239;BME280;61342;51.442;7.370;2023-02-04T05:25:01;101777.34;;;8.14;93.19